createdAt,value
2019-06-27T00:01:48.511Z,96.50
2019-06-27T00:04:16.696Z,96.50
2019-06-27T00:06:44.983Z,96.40
2019-06-27T00:09:14.303Z,96.90
2019-06-27T00:11:42.552Z,96.70
2019-06-27T00:14:10.764Z,96.50
2019-06-27T00:16:38.986Z,96.80
2019-06-27T00:19:07.490Z,96.60
2019-06-27T00:21:35.550Z,96.80
2019-06-27T00:24:03.801Z,96.70
2019-06-27T00:26:31.908Z,96.50
2019-06-27T00:29:00.282Z,97.10
2019-06-27T00:31:28.816Z,97.10
2019-06-27T00:33:57.381Z,97.00
2019-06-27T00:36:25.650Z,96.70
2019-06-27T00:38:53.674Z,96.80
2019-06-27T00:41:21.949Z,96.50
2019-06-27T00:43:50.546Z,96.80
2019-06-27T00:46:18.912Z,96.90
2019-06-27T00:48:47.007Z,96.70
2019-06-27T00:51:15.219Z,97.00
2019-06-27T00:53:43.412Z,97.20
2019-06-27T00:56:11.890Z,97.00
2019-06-27T00:58:40.245Z,96.90
2019-06-27T01:01:08.701Z,96.80
2019-06-27T01:03:36.825Z,97.20
2019-06-27T01:06:04.961Z,96.90
2019-06-27T01:08:33.273Z,97.00
2019-06-27T01:11:01.671Z,97.30
2019-06-27T01:13:30.262Z,97.30
2019-06-27T01:15:59.255Z,96.70
2019-06-27T01:18:27.430Z,97.00
2019-06-27T01:20:55.702Z,97.10
2019-06-27T01:23:24.478Z,97.00
2019-06-27T01:25:52.927Z,96.70
2019-06-27T01:28:21.183Z,96.30
2019-06-27T01:30:49.387Z,96.30
2019-06-27T01:33:17.801Z,96.40
2019-06-27T01:35:45.937Z,96.00
2019-06-27T01:38:14.184Z,96.00
2019-06-27T01:40:43.627Z,95.90
2019-06-27T01:43:12.060Z,96.10
2019-06-27T01:45:49.022Z,96.40
2019-06-27T01:48:17.262Z,96.40
2019-06-27T01:50:45.715Z,96.10
2019-06-27T01:53:13.849Z,96.50
2019-06-27T01:55:41.987Z,96.40
2019-06-27T01:58:10.354Z,96.40
2019-06-27T02:00:38.692Z,96.30
2019-06-27T02:03:06.987Z,96.80
2019-06-27T02:05:35.273Z,96.20
2019-06-27T02:08:03.698Z,95.90
2019-06-27T02:10:32.262Z,96.20
2019-06-27T02:13:00.636Z,96.00
2019-06-27T02:15:29.076Z,96.30
2019-06-27T02:17:57.162Z,96.20
2019-06-27T02:20:25.540Z,96.40
2019-06-27T02:22:53.918Z,96.50
2019-06-27T02:25:23.175Z,96.60
2019-06-27T02:28:03.070Z,96.70
2019-06-27T02:30:42.081Z,97.00
2019-06-27T02:33:10.750Z,96.60
2019-06-27T02:35:39.314Z,96.60
2019-06-27T02:38:07.775Z,96.40
2019-06-27T02:40:36.016Z,96.50
2019-06-27T02:43:04.590Z,96.30
2019-06-27T02:45:33.008Z,96.70
2019-06-27T02:48:01.077Z,96.50
2019-06-27T02:50:29.390Z,96.90
2019-06-27T02:52:57.535Z,96.80
2019-06-27T02:55:26.240Z,96.60
2019-06-27T02:57:54.313Z,96.70
2019-06-27T03:00:22.606Z,97.20
2019-06-27T03:02:50.863Z,96.80
2019-06-27T03:05:19.247Z,96.50
2019-06-27T03:07:47.731Z,96.40
2019-06-27T03:10:16.025Z,97.10
2019-06-27T03:12:44.050Z,96.40
2019-06-27T03:15:13.016Z,96.30
2019-06-27T03:17:41.295Z,95.90
2019-06-27T03:20:09.799Z,96.60
2019-06-27T03:22:37.992Z,96.40
2019-06-27T03:25:06.356Z,96.20
2019-06-27T03:27:34.961Z,96.50
2019-06-27T03:30:04.021Z,96.40
2019-06-27T03:32:32.336Z,96.70
2019-06-27T03:35:00.621Z,96.80
2019-06-27T03:37:28.889Z,96.40
2019-06-27T03:39:57.033Z,96.40
2019-06-27T03:42:25.441Z,96.20
2019-06-27T03:44:54.866Z,96.20
2019-06-27T03:47:23.428Z,96.50
2019-06-27T03:49:51.834Z,97.10
2019-06-27T03:52:20.082Z,97.50
2019-06-27T03:54:48.155Z,96.80
2019-06-27T03:57:16.475Z,97.40
2019-06-27T03:59:44.958Z,96.80
2019-06-27T04:02:13.121Z,96.70
2019-06-27T04:04:41.092Z,96.00
2019-06-27T04:07:09.252Z,95.80
2019-06-27T04:09:37.627Z,95.60
2019-06-27T04:12:06.152Z,96.10
2019-06-27T04:14:34.517Z,95.80
2019-06-27T04:17:04.292Z,95.40
2019-06-27T04:19:32.445Z,95.30
2019-06-27T04:22:00.821Z,95.60
2019-06-27T04:24:29.211Z,95.30
2019-06-27T04:26:57.351Z,95.60
2019-06-27T04:29:33.439Z,96.10
2019-06-27T04:31:55.677Z,95.30
2019-06-27T04:34:23.938Z,95.20
2019-06-27T04:36:52.305Z,95.10
2019-06-27T04:39:20.592Z,95.40
2019-06-27T04:41:48.745Z,94.90
2019-06-27T04:44:17.085Z,95.10
2019-06-27T04:46:45.218Z,94.80
2019-06-27T04:49:14.089Z,95.30
2019-06-27T04:51:42.698Z,94.20
2019-06-27T04:54:10.836Z,94.20
2019-06-27T04:56:39.107Z,94.30
2019-06-27T04:59:07.492Z,94.30
2019-06-27T05:01:36.079Z,94.20
2019-06-27T05:04:04.481Z,95.00
2019-06-27T05:06:32.634Z,94.50
2019-06-27T05:09:00.700Z,94.90
2019-06-27T05:11:28.795Z,94.60
2019-06-27T05:13:57.036Z,94.60
2019-06-27T05:16:25.088Z,94.70
2019-06-27T05:18:53.270Z,94.60
2019-06-27T05:21:21.328Z,94.80
2019-06-27T05:23:50.556Z,94.50
2019-06-27T05:26:18.740Z,94.70
2019-06-27T05:28:46.783Z,94.70
2019-06-27T05:31:14.975Z,94.80
2019-06-27T05:33:43.192Z,95.20
2019-06-27T05:36:11.388Z,94.90
2019-06-27T05:38:39.632Z,94.60
2019-06-27T05:41:07.729Z,94.70
2019-06-27T05:43:35.855Z,94.80
2019-06-27T05:46:04.149Z,95.00
2019-06-27T05:48:32.357Z,94.40
2019-06-27T05:51:02.138Z,94.10
2019-06-27T05:53:30.260Z,93.90
2019-06-27T05:55:58.318Z,93.60
2019-06-27T05:58:26.439Z,94.00
2019-06-27T06:00:54.813Z,93.80
2019-06-27T06:03:23.157Z,93.70
2019-06-27T06:05:51.246Z,94.10
2019-06-27T06:08:19.502Z,93.70
2019-06-27T06:10:47.648Z,94.00
2019-06-27T06:13:15.774Z,94.60
2019-06-27T06:15:43.953Z,94.10
2019-06-27T06:18:12.125Z,94.00
2019-06-27T06:20:40.223Z,94.00
2019-06-27T06:23:08.550Z,94.00
2019-06-27T06:25:37.896Z,94.50
2019-06-27T06:28:06.196Z,94.00
2019-06-27T06:30:44.496Z,94.70
2019-06-27T06:33:04.571Z,94.80
2019-06-27T06:35:32.716Z,95.00
2019-06-27T06:38:00.968Z,94.80
2019-06-27T06:40:29.164Z,94.60
2019-06-27T06:43:00.466Z,94.40
2019-06-27T06:45:27.921Z,94.80
2019-06-27T06:47:56.171Z,94.30
2019-06-27T06:50:24.228Z,95.00
2019-06-27T06:52:52.363Z,94.50
2019-06-27T06:55:20.805Z,95.00
2019-06-27T06:57:49.103Z,94.30
2019-06-27T07:00:17.891Z,94.40
2019-06-27T07:02:46.072Z,94.70
2019-06-27T07:05:14.101Z,94.50
2019-06-27T07:07:43.087Z,94.40
2019-06-27T07:10:12.261Z,94.70
2019-06-27T07:12:41.570Z,95.40
2019-06-27T07:15:10.373Z,95.20
2019-06-27T07:17:38.412Z,94.90
2019-06-27T07:20:06.881Z,94.60
2019-06-27T07:22:35.100Z,94.40
2019-06-27T07:25:03.748Z,94.10
2019-06-27T07:27:31.795Z,94.20
2019-06-27T07:29:59.894Z,94.10
2019-06-27T07:32:28.031Z,94.00
2019-06-27T07:34:56.244Z,94.40
2019-06-27T07:37:24.459Z,94.80
2019-06-27T07:39:52.797Z,95.10
2019-06-27T07:42:21.744Z,95.10
2019-06-27T07:44:49.764Z,95.50
2019-06-27T07:47:18.157Z,95.40
2019-06-27T07:49:46.362Z,95.30
2019-06-27T07:52:14.559Z,94.90
2019-06-27T07:54:42.805Z,95.30
2019-06-27T07:57:10.819Z,95.60
2019-06-27T07:59:38.898Z,94.90
2019-06-27T08:02:07.242Z,94.90
2019-06-27T08:04:35.413Z,95.00
2019-06-27T08:07:03.509Z,94.90
2019-06-27T08:09:31.712Z,95.10
2019-06-27T08:12:00.301Z,94.90
2019-06-27T08:14:28.482Z,95.10
2019-06-27T08:16:56.537Z,95.30
2019-06-27T08:19:24.619Z,95.00
2019-06-27T08:21:52.880Z,95.00
2019-06-27T08:24:21.243Z,95.60
2019-06-27T08:26:49.342Z,95.70
2019-06-27T08:29:17.411Z,96.30
2019-06-27T08:31:51.315Z,96.00
2019-06-27T08:34:16.583Z,96.70
2019-06-27T08:36:44.935Z,97.30
2019-06-27T08:39:13.215Z,97.60
2019-06-27T08:41:41.374Z,98.30
2019-06-27T08:44:09.470Z,98.40
2019-06-27T08:46:37.850Z,98.70
2019-06-27T08:49:05.883Z,98.80
2019-06-27T08:51:34.165Z,99.20
2019-06-27T08:54:02.390Z,98.70
2019-06-27T08:56:30.645Z,98.90
2019-06-27T08:58:58.695Z,98.70
2019-06-27T09:01:26.806Z,98.50
2019-06-27T09:03:54.955Z,98.60
2019-06-27T09:06:23.289Z,98.70
2019-06-27T09:08:51.767Z,98.40
2019-06-27T09:11:19.887Z,98.70
2019-06-27T09:13:48.199Z,99.20
2019-06-27T09:16:16.386Z,99.10
2019-06-27T09:18:44.486Z,99.70
2019-06-27T09:21:12.694Z,99.70
2019-06-27T09:23:40.902Z,99.90
2019-06-27T09:26:09.074Z,99.90
2019-06-27T09:28:37.350Z,99.90
2019-06-27T09:31:05.663Z,99.90
2019-06-27T09:33:33.990Z,99.90
2019-06-27T09:36:02.067Z,99.90
2019-06-27T09:38:30.251Z,99.90
2019-06-27T09:40:58.336Z,99.90
2019-06-27T09:43:26.664Z,99.90
2019-06-27T09:45:54.904Z,99.90
2019-06-27T09:48:22.974Z,99.90
2019-06-27T09:50:51.123Z,99.90
2019-06-27T09:53:19.734Z,99.90
2019-06-27T09:55:48.082Z,99.20
2019-06-27T09:58:17.197Z,99.50
2019-06-27T10:00:45.614Z,99.00
2019-06-27T10:03:13.930Z,99.70
2019-06-27T10:05:42.471Z,99.90
2019-06-27T10:08:10.624Z,99.90
2019-06-27T10:10:39.050Z,99.90
2019-06-27T10:13:07.714Z,99.90
2019-06-27T10:15:35.983Z,99.90
2019-06-27T10:18:09.267Z,99.90
2019-06-27T10:20:38.022Z,99.90
2019-06-27T10:23:06.476Z,99.90
2019-06-27T10:25:38.067Z,99.90
2019-06-27T10:28:05.121Z,99.90
2019-06-27T10:30:33.251Z,99.50
2019-06-27T10:33:01.288Z,98.80
2019-06-27T10:35:30.694Z,98.70
2019-06-27T10:37:58.851Z,98.80
2019-06-27T10:40:26.975Z,99.10
2019-06-27T10:42:54.997Z,98.50
2019-06-27T10:45:23.219Z,99.00
2019-06-27T10:47:51.425Z,98.70
2019-06-27T10:50:20.350Z,98.20
2019-06-27T10:52:48.598Z,99.00
2019-06-27T10:55:17.037Z,97.80
2019-06-27T10:57:45.321Z,98.00
2019-06-27T11:00:15.786Z,98.50
2019-06-27T11:02:44.287Z,98.00
2019-06-27T11:05:12.945Z,98.30
2019-06-27T11:07:41.386Z,98.60
2019-06-27T11:10:10.496Z,98.90
2019-06-27T11:12:38.978Z,98.60
2019-06-27T11:15:08.237Z,99.10
2019-06-27T11:17:36.917Z,99.40
2019-06-27T11:20:06.649Z,98.70
2019-06-27T11:22:35.048Z,97.50
2019-06-27T11:25:04.304Z,97.10
2019-06-27T11:27:32.619Z,97.30
2019-06-27T11:30:00.924Z,97.60
2019-06-27T11:32:29.184Z,98.00
2019-06-27T11:34:57.766Z,97.10
2019-06-27T11:37:26.307Z,98.30
2019-06-27T11:39:54.996Z,97.60
2019-06-27T11:42:23.240Z,97.70
2019-06-27T11:44:51.840Z,98.10
2019-06-27T11:47:20.648Z,97.40
2019-06-27T11:49:49.011Z,96.90
2019-06-27T11:52:17.309Z,96.60
2019-06-27T11:54:45.692Z,96.80
2019-06-27T11:57:14.414Z,97.50
2019-06-27T11:59:42.557Z,96.80
2019-06-27T12:02:11.086Z,96.70
2019-06-27T12:04:39.479Z,97.30
2019-06-27T12:07:07.694Z,96.70
2019-06-27T12:09:35.998Z,96.70
2019-06-27T12:12:04.887Z,96.00
2019-06-27T12:14:37.153Z,96.80
2019-06-27T12:17:08.074Z,95.70
2019-06-27T12:19:37.258Z,95.70
2019-06-27T12:22:05.609Z,95.70
2019-06-27T12:24:34.386Z,95.80
2019-06-27T12:27:03.150Z,95.50
2019-06-27T12:29:31.632Z,95.40
2019-06-27T12:32:00.222Z,95.80
2019-06-27T12:34:28.517Z,95.80
2019-06-27T12:36:56.893Z,96.10
2019-06-27T12:39:25.275Z,96.50
2019-06-27T12:41:53.862Z,96.90
2019-06-27T12:44:22.371Z,96.40
2019-06-27T12:46:51.735Z,96.00
2019-06-27T12:49:20.298Z,96.50
2019-06-27T12:51:48.752Z,96.50
2019-06-27T12:54:18.087Z,95.10
2019-06-27T12:56:46.600Z,94.80
2019-06-27T12:59:14.845Z,94.70
2019-06-27T13:01:43.491Z,94.40
2019-06-27T13:04:22.856Z,94.30
2019-06-27T13:06:42.302Z,94.70
2019-06-27T13:09:11.769Z,94.60
2019-06-27T13:11:40.067Z,94.60
2019-06-27T13:14:08.568Z,95.10
2019-06-27T13:16:37.231Z,95.50
2019-06-27T13:19:05.547Z,95.60
2019-06-27T13:21:34.006Z,95.60
2019-06-27T13:24:02.342Z,95.10
2019-06-27T13:26:32.023Z,95.70
2019-06-27T13:29:00.923Z,95.60
2019-06-27T13:31:29.643Z,96.20
2019-06-27T13:33:58.255Z,96.00
2019-06-27T13:36:26.817Z,96.20
2019-06-27T13:38:55.273Z,96.20
2019-06-27T13:41:23.763Z,96.70
2019-06-27T13:43:52.441Z,96.80
2019-06-27T13:46:20.859Z,97.50
2019-06-27T13:48:49.349Z,96.30
2019-06-27T13:51:20.139Z,96.40
2019-06-27T13:53:48.966Z,96.00
2019-06-27T13:56:17.191Z,96.40
2019-06-27T13:58:45.590Z,96.30
2019-06-27T14:01:14.054Z,96.60
2019-06-27T14:03:49.091Z,96.60
2019-06-27T14:06:12.829Z,96.20
2019-06-27T14:08:41.358Z,96.10
2019-06-27T14:11:10.132Z,96.20
2019-06-27T14:13:38.362Z,95.60
2019-06-27T14:16:10.796Z,95.50
2019-06-27T14:18:39.359Z,95.80
2019-06-27T14:21:07.709Z,95.70
2019-06-27T14:23:35.933Z,96.20
2019-06-27T14:26:04.192Z,96.40
2019-06-27T14:28:36.621Z,96.40
2019-06-27T14:31:12.982Z,96.90
2019-06-27T14:33:42.027Z,97.20
2019-06-27T14:36:13.104Z,97.60
2019-06-27T14:38:43.034Z,97.30
2019-06-27T14:41:11.339Z,97.80
2019-06-27T14:43:39.623Z,97.50
2019-06-27T14:46:07.825Z,97.60
2019-06-27T14:48:36.191Z,97.80
2019-06-27T14:51:04.389Z,97.80
2019-06-27T14:53:32.761Z,97.60
2019-06-27T14:56:01.145Z,97.90
2019-06-27T14:58:33.124Z,97.80
2019-06-27T15:00:59.548Z,97.50
2019-06-27T15:03:32.416Z,96.90
2019-06-27T15:06:00.421Z,97.10
2019-06-27T15:08:29.079Z,96.50
2019-06-27T15:10:58.907Z,96.00
2019-06-27T15:13:27.258Z,95.60
2019-06-27T15:16:11.644Z,95.70
2019-06-27T15:18:32.474Z,95.30
2019-06-27T15:21:03.646Z,94.50
2019-06-27T15:23:31.985Z,94.40
2019-06-27T15:26:00.242Z,94.40
2019-06-27T15:28:28.762Z,94.40
2019-06-27T15:30:59.156Z,95.30
2019-06-27T15:33:27.455Z,95.00
2019-06-27T15:35:56.343Z,95.70
2019-06-27T15:38:26.911Z,95.40
2019-06-27T15:40:55.727Z,95.90
2019-06-27T15:43:24.129Z,96.40
2019-06-27T15:45:53.436Z,95.90
2019-06-27T15:48:21.922Z,95.10
2019-06-27T15:50:50.279Z,95.40
2019-06-27T15:53:18.837Z,95.30
2019-06-27T15:55:47.088Z,95.30
2019-06-27T15:58:15.608Z,95.40
2019-06-27T16:00:43.998Z,95.90
2019-06-27T16:03:12.496Z,96.00
2019-06-27T16:05:40.850Z,96.40
2019-06-27T16:08:09.143Z,96.80
2019-06-27T16:10:37.533Z,96.40
2019-06-27T16:13:06.035Z,96.40
2019-06-27T16:15:34.239Z,97.40
2019-06-27T16:18:02.818Z,96.70
2019-06-27T16:20:30.831Z,96.50
2019-06-27T16:22:58.869Z,96.70
2019-06-27T16:25:27.267Z,97.10
2019-06-27T16:27:55.684Z,97.50
2019-06-27T16:30:24.018Z,96.90
2019-06-27T16:32:52.306Z,96.50
2019-06-27T16:35:20.427Z,97.20
2019-06-27T16:37:50.752Z,96.90
2019-06-27T16:40:21.194Z,97.70
2019-06-27T16:42:49.328Z,97.80
2019-06-27T16:45:17.587Z,97.60
2019-06-27T16:47:46.106Z,97.20
2019-06-27T16:50:14.739Z,97.20
2019-06-27T16:52:42.835Z,96.90
2019-06-27T16:55:11.513Z,97.00
2019-06-27T16:57:39.979Z,96.70
2019-06-27T17:00:08.921Z,96.50
2019-06-27T17:02:37.076Z,96.10
2019-06-27T17:05:06.306Z,96.70
2019-06-27T17:07:34.509Z,96.80
2019-06-27T17:10:03.079Z,96.70
2019-06-27T17:12:31.215Z,96.70
2019-06-27T17:14:59.302Z,96.10
2019-06-27T17:17:27.638Z,96.00
2019-06-27T17:19:56.005Z,96.40
2019-06-27T17:22:24.083Z,96.50
2019-06-27T17:24:52.270Z,96.30
2019-06-27T17:27:20.875Z,96.30
2019-06-27T17:29:49.202Z,96.30
2019-06-27T17:32:17.237Z,96.80
2019-06-27T17:34:45.551Z,97.00
2019-06-27T17:37:13.742Z,96.90
2019-06-27T17:39:41.779Z,96.60
2019-06-27T17:42:09.865Z,97.10
2019-06-27T17:44:38.089Z,96.80
2019-06-27T17:47:06.343Z,96.70
2019-06-27T17:49:34.488Z,96.90
2019-06-27T17:52:02.987Z,96.60
2019-06-27T17:54:31.207Z,96.80
2019-06-27T17:56:59.475Z,96.70
2019-06-27T17:59:27.859Z,96.40
2019-06-27T18:02:02.037Z,96.70
2019-06-27T18:04:30.289Z,96.50
2019-06-27T18:07:13.495Z,96.60
2019-06-27T18:09:42.761Z,96.30
2019-06-27T18:12:14.190Z,96.30
2019-06-27T18:14:42.655Z,96.70
2019-06-27T18:17:13.301Z,96.70
2019-06-27T18:19:45.874Z,97.10
2019-06-27T18:22:16.709Z,96.90
2019-06-27T18:24:50.695Z,96.90
2019-06-27T18:27:19.235Z,96.70
2019-06-27T18:29:48.175Z,96.40
2019-06-27T18:32:23.942Z,96.60
2019-06-27T18:34:52.656Z,96.80
2019-06-27T18:37:29.711Z,96.80
2019-06-27T18:39:51.058Z,96.50
2019-06-27T18:42:19.214Z,96.80
2019-06-27T18:44:49.251Z,96.60
2019-06-27T18:47:17.785Z,96.80
2019-06-27T18:49:45.946Z,96.90
2019-06-27T18:52:14.398Z,96.80
2019-06-27T18:54:42.577Z,96.40
2019-06-27T18:57:10.818Z,96.40
2019-06-27T18:59:39.087Z,96.80
2019-06-27T19:02:13.848Z,96.90
2019-06-27T19:04:47.297Z,96.90
2019-06-27T19:07:20.322Z,97.30
2019-06-27T19:09:51.515Z,96.80
2019-06-27T19:12:19.744Z,97.10
2019-06-27T19:14:48.056Z,97.20
2019-06-27T19:17:16.392Z,97.20
2019-06-27T19:19:47.993Z,97.20
2019-06-27T19:22:35.784Z,96.50
2019-06-27T19:25:09.699Z,96.80
2019-06-27T19:27:37.951Z,96.40
2019-06-27T19:30:07.570Z,96.10
2019-06-27T19:32:35.913Z,96.20
2019-06-27T19:35:04.931Z,96.40
2019-06-27T19:37:33.488Z,96.50
2019-06-27T19:40:01.782Z,96.70
2019-06-27T19:42:30.217Z,96.80
2019-06-27T19:44:58.834Z,96.90
2019-06-27T19:47:27.046Z,97.20
2019-06-27T19:49:55.326Z,97.30
2019-06-27T19:52:23.633Z,97.20
2019-06-27T19:54:52.025Z,97.20
2019-06-27T19:57:20.900Z,97.20
2019-06-27T19:59:49.719Z,97.10
2019-06-27T20:02:17.811Z,97.20
2019-06-27T20:04:46.374Z,97.00
2019-06-27T20:07:14.588Z,97.40
2019-06-27T20:09:42.916Z,97.30
2019-06-27T20:12:12.206Z,97.20
2019-06-27T20:14:42.846Z,97.10
2019-06-27T20:17:11.247Z,97.60
2019-06-27T20:19:39.993Z,97.50
2019-06-27T20:22:08.327Z,97.40
2019-06-27T20:24:36.863Z,97.30
2019-06-27T20:27:05.219Z,97.20
2019-06-27T20:29:33.436Z,97.20
2019-06-27T20:32:02.037Z,97.00
2019-06-27T20:34:30.538Z,97.20
2019-06-27T20:36:58.922Z,97.50
2019-06-27T20:39:27.542Z,97.30
2019-06-27T20:41:55.834Z,97.20
2019-06-27T20:44:27.643Z,97.10
2019-06-27T20:46:55.817Z,97.30
2019-06-27T20:49:24.379Z,97.40
2019-06-27T20:51:52.782Z,97.50
2019-06-27T20:54:21.111Z,97.40
2019-06-27T20:56:49.644Z,97.50
2019-06-27T20:59:17.859Z,97.40
2019-06-27T21:01:46.779Z,97.20
2019-06-27T21:04:15.035Z,97.20
2019-06-27T21:06:43.555Z,97.70
2019-06-27T21:09:12.086Z,97.50
2019-06-27T21:11:40.277Z,97.50
2019-06-27T21:14:08.648Z,97.40
2019-06-27T21:16:36.798Z,97.80
2019-06-27T21:19:05.111Z,97.70
2019-06-27T21:21:33.735Z,97.50
2019-06-27T21:24:02.002Z,97.50
2019-06-27T21:26:30.191Z,97.70
2019-06-27T21:28:58.568Z,98.10
2019-06-27T21:31:26.927Z,97.80
2019-06-27T21:33:55.042Z,98.00
2019-06-27T21:36:24.371Z,97.80
2019-06-27T21:39:06.668Z,97.60
2019-06-27T21:41:23.696Z,97.70
2019-06-27T21:43:51.977Z,97.60
2019-06-27T21:46:20.257Z,97.70
2019-06-27T21:48:48.737Z,97.50
2019-06-27T21:51:23.992Z,97.50
2019-06-27T21:56:35.114Z,97.30
2019-06-27T21:59:06.247Z,97.80
2019-06-27T22:01:35.494Z,97.50
2019-06-27T22:04:04.065Z,97.60
2019-06-27T22:06:32.401Z,97.70
2019-06-27T22:09:00.586Z,97.70
2019-06-27T22:11:29.012Z,97.60
2019-06-27T22:13:57.352Z,97.50
2019-06-27T22:16:25.565Z,97.60
2019-06-27T22:18:53.909Z,97.50
2019-06-27T22:21:22.642Z,97.50
2019-06-27T22:23:50.931Z,97.50
2019-06-27T22:26:19.077Z,97.60
2019-06-27T22:31:35.598Z,97.80
2019-06-27T22:34:04.011Z,98.00
2019-06-27T22:36:32.472Z,98.00
2019-06-27T22:39:19.933Z,98.00
2019-06-27T22:42:07.964Z,98.10
2019-06-27T22:44:55.477Z,97.60
2019-06-27T22:47:41.623Z,97.90
2019-06-27T22:50:29.550Z,97.80
2019-06-27T22:53:07.719Z,97.60
2019-06-27T22:55:36.045Z,97.50
2019-06-27T22:58:04.623Z,97.50
2019-06-27T23:00:33.022Z,97.40
2019-06-27T23:03:01.701Z,97.60
2019-06-27T23:05:31.364Z,97.80
2019-06-27T23:07:59.792Z,97.90
2019-06-27T23:10:28.111Z,97.40
2019-06-27T23:12:57.079Z,97.70
2019-06-27T23:15:25.547Z,97.80
2019-06-27T23:17:53.977Z,98.10
2019-06-27T23:20:22.429Z,98.10
2019-06-27T23:22:50.734Z,98.00
2019-06-27T23:25:19.152Z,98.00
2019-06-27T23:27:47.684Z,97.90
2019-06-27T23:30:16.007Z,97.80
2019-06-27T23:32:44.299Z,97.80
2019-06-27T23:35:12.768Z,97.80
2019-06-27T23:37:41.417Z,97.60
2019-06-27T23:40:14.437Z,97.60
2019-06-27T23:42:40.693Z,97.70
2019-06-27T23:45:08.906Z,97.70
2019-06-27T23:47:37.452Z,97.80
2019-06-27T23:50:05.797Z,97.80
2019-06-27T23:52:34.395Z,97.80
2019-06-27T23:55:02.935Z,98.10
2019-06-27T23:57:31.035Z,97.80
2019-06-27T23:59:59.374Z,98.20
